sensor_id;sensor_type;location;lat;lon;timestamp;P1;durP1;ratioP1;P2;durP2;ratioP2
7110;SDS011;3597;42.650;23.386;2024-02-21T00:00:15;9.27;;;7.10;;
7110;SDS011;3597;42.650;23.386;2024-02-21T00:02:40;8.95;;;7.78;;
7110;SDS011;3597;42.650;23.386;2024-02-21T00:05:06;9.40;;;7.47;;
7110;SDS011;3597;42.650;23.386;2024-02-21T00:07:32;22.20;;;13.55;;
7110;SDS011;3597;42.650;23.386;2024-02-21T00:09:58;13.50;;;10.15;;
7110;SDS011;3597;42.650;23.386;2024-02-21T00:12:23;10.63;;;9.10;;
7110;SDS011;3597;42.650;23.386;2024-02-21T00:14:49;11.63;;;9.32;;
7110;SDS011;3597;42.650;23.386;2024-02-21T00:17:14;10.18;;;8.10;;
7110;SDS011;3597;42.650;23.386;2024-02-21T00:19:40;11.10;;;9.25;;
7110;SDS011;3597;42.650;23.386;2024-02-21T00:22:06;9.02;;;7.82;;
7110;SDS011;3597;42.650;23.386;2024-02-21T00:24:31;13.68;;;9.48;;
7110;SDS011;3597;42.650;23.386;2024-02-21T00:26:57;11.07;;;7.65;;
7110;SDS011;3597;42.650;23.386;2024-02-21T00:29:22;9.27;;;7.68;;
7110;SDS011;3597;42.650;23.386;2024-02-21T00:31:48;8.57;;;6.97;;
7110;SDS011;3597;42.650;23.386;2024-02-21T00:34:14;10.10;;;8.70;;
7110;SDS011;3597;42.650;23.386;2024-02-21T00:36:40;12.30;;;8.27;;
7110;SDS011;3597;42.650;23.386;2024-02-21T00:39:05;14.30;;;11.30;;
7110;SDS011;3597;42.650;23.386;2024-02-21T00:41:31;16.88;;;11.10;;
7110;SDS011;3597;42.650;23.386;2024-02-21T00:43:57;8.05;;;7.25;;
7110;SDS011;3597;42.650;23.386;2024-02-21T00:46:22;11.10;;;8.90;;
7110;SDS011;3597;42.650;23.386;2024-02-21T00:48:48;10.65;;;7.78;;
7110;SDS011;3597;42.650;23.386;2024-02-21T00:51:15;9.77;;;8.85;;
7110;SDS011;3597;42.650;23.386;2024-02-21T00:53:42;11.50;;;8.95;;
7110;SDS011;3597;42.650;23.386;2024-02-21T00:56:07;14.02;;;9.35;;
7110;SDS011;3597;42.650;23.386;2024-02-21T00:58:33;11.40;;;9.43;;
7110;SDS011;3597;42.650;23.386;2024-02-21T01:01:00;11.05;;;9.85;;
7110;SDS011;3597;42.650;23.386;2024-02-21T01:03:25;10.93;;;8.95;;
7110;SDS011;3597;42.650;23.386;2024-02-21T01:05:51;10.57;;;8.77;;
7110;SDS011;3597;42.650;23.386;2024-02-21T01:08:17;10.95;;;9.30;;
7110;SDS011;3597;42.650;23.386;2024-02-21T01:10:43;11.15;;;7.32;;
7110;SDS011;3597;42.650;23.386;2024-02-21T01:13:08;12.55;;;10.02;;
7110;SDS011;3597;42.650;23.386;2024-02-21T01:15:34;11.57;;;8.55;;
7110;SDS011;3597;42.650;23.386;2024-02-21T01:18:00;10.43;;;8.63;;
7110;SDS011;3597;42.650;23.386;2024-02-21T01:20:26;12.45;;;8.23;;
7110;SDS011;3597;42.650;23.386;2024-02-21T01:22:52;11.20;;;8.85;;
7110;SDS011;3597;42.650;23.386;2024-02-21T01:25:17;9.07;;;7.90;;
7110;SDS011;3597;42.650;23.386;2024-02-21T01:27:43;14.02;;;9.90;;
7110;SDS011;3597;42.650;23.386;2024-02-21T01:30:09;11.93;;;9.10;;
7110;SDS011;3597;42.650;23.386;2024-02-21T01:32:36;10.65;;;8.45;;
7110;SDS011;3597;42.650;23.386;2024-02-21T01:35:01;12.60;;;9.13;;
7110;SDS011;3597;42.650;23.386;2024-02-21T01:37:27;9.90;;;7.32;;
7110;SDS011;3597;42.650;23.386;2024-02-21T01:39:52;11.05;;;8.75;;
7110;SDS011;3597;42.650;23.386;2024-02-21T01:42:18;12.10;;;8.50;;
7110;SDS011;3597;42.650;23.386;2024-02-21T01:44:44;9.50;;;8.52;;
7110;SDS011;3597;42.650;23.386;2024-02-21T01:47:10;12.05;;;9.07;;
7110;SDS011;3597;42.650;23.386;2024-02-21T01:49:39;11.98;;;9.57;;
7110;SDS011;3597;42.650;23.386;2024-02-21T01:52:08;12.95;;;9.02;;
7110;SDS011;3597;42.650;23.386;2024-02-21T01:54:37;11.70;;;9.35;;
7110;SDS011;3597;42.650;23.386;2024-02-21T01:57:03;13.43;;;10.05;;
7110;SDS011;3597;42.650;23.386;2024-02-21T01:59:29;13.90;;;9.25;;
7110;SDS011;3597;42.650;23.386;2024-02-21T02:01:55;11.00;;;9.50;;
7110;SDS011;3597;42.650;23.386;2024-02-21T02:04:21;12.15;;;9.35;;
7110;SDS011;3597;42.650;23.386;2024-02-21T02:06:48;11.88;;;9.13;;
7110;SDS011;3597;42.650;23.386;2024-02-21T02:09:15;11.25;;;9.68;;
7110;SDS011;3597;42.650;23.386;2024-02-21T02:11:42;12.70;;;9.63;;
7110;SDS011;3597;42.650;23.386;2024-02-21T02:14:08;10.23;;;8.35;;
7110;SDS011;3597;42.650;23.386;2024-02-21T02:16:34;10.90;;;8.48;;
7110;SDS011;3597;42.650;23.386;2024-02-21T02:18:59;11.25;;;8.85;;
7110;SDS011;3597;42.650;23.386;2024-02-21T02:21:32;11.90;;;8.27;;
7110;SDS011;3597;42.650;23.386;2024-02-21T02:24:03;9.60;;;7.63;;
7110;SDS011;3597;42.650;23.386;2024-02-21T02:26:30;9.85;;;8.43;;
7110;SDS011;3597;42.650;23.386;2024-02-21T02:28:55;10.55;;;8.52;;
7110;SDS011;3597;42.650;23.386;2024-02-21T02:31:21;10.15;;;8.45;;
7110;SDS011;3597;42.650;23.386;2024-02-21T02:33:46;12.20;;;8.60;;
7110;SDS011;3597;42.650;23.386;2024-02-21T02:36:13;9.55;;;8.00;;
7110;SDS011;3597;42.650;23.386;2024-02-21T02:38:38;10.23;;;8.15;;
7110;SDS011;3597;42.650;23.386;2024-02-21T02:41:04;9.48;;;7.70;;
7110;SDS011;3597;42.650;23.386;2024-02-21T02:43:30;9.70;;;7.68;;
7110;SDS011;3597;42.650;23.386;2024-02-21T02:45:56;10.10;;;7.90;;
7110;SDS011;3597;42.650;23.386;2024-02-21T02:48:22;11.13;;;8.00;;
7110;SDS011;3597;42.650;23.386;2024-02-21T02:50:47;10.65;;;8.75;;
7110;SDS011;3597;42.650;23.386;2024-02-21T02:53:14;11.15;;;8.77;;
7110;SDS011;3597;42.650;23.386;2024-02-21T02:55:40;11.85;;;8.48;;
7110;SDS011;3597;42.650;23.386;2024-02-21T02:58:06;9.60;;;8.60;;
7110;SDS011;3597;42.650;23.386;2024-02-21T03:00:31;10.50;;;8.23;;
7110;SDS011;3597;42.650;23.386;2024-02-21T03:03:01;11.85;;;8.82;;
7110;SDS011;3597;42.650;23.386;2024-02-21T03:05:29;10.43;;;8.40;;
7110;SDS011;3597;42.650;23.386;2024-02-21T03:07:54;13.05;;;8.73;;
7110;SDS011;3597;42.650;23.386;2024-02-21T03:10:20;11.23;;;8.88;;
7110;SDS011;3597;42.650;23.386;2024-02-21T03:12:46;9.80;;;7.47;;
7110;SDS011;3597;42.650;23.386;2024-02-21T03:15:12;12.63;;;10.48;;
7110;SDS011;3597;42.650;23.386;2024-02-21T03:17:39;11.27;;;9.15;;
7110;SDS011;3597;42.650;23.386;2024-02-21T03:20:05;10.57;;;8.50;;
7110;SDS011;3597;42.650;23.386;2024-02-21T03:22:35;11.77;;;9.13;;
7110;SDS011;3597;42.650;23.386;2024-02-21T03:25:01;12.20;;;9.73;;
7110;SDS011;3597;42.650;23.386;2024-02-21T03:27:27;10.20;;;8.20;;
7110;SDS011;3597;42.650;23.386;2024-02-21T03:29:52;10.90;;;8.63;;
7110;SDS011;3597;42.650;23.386;2024-02-21T03:32:18;10.02;;;8.50;;
7110;SDS011;3597;42.650;23.386;2024-02-21T03:34:44;9.98;;;8.38;;
7110;SDS011;3597;42.650;23.386;2024-02-21T03:37:09;10.85;;;8.52;;
7110;SDS011;3597;42.650;23.386;2024-02-21T03:39:35;8.80;;;7.75;;
7110;SDS011;3597;42.650;23.386;2024-02-21T03:42:02;10.20;;;7.72;;
7110;SDS011;3597;42.650;23.386;2024-02-21T03:44:32;12.32;;;9.38;;
7110;SDS011;3597;42.650;23.386;2024-02-21T03:46:59;11.52;;;9.32;;
7110;SDS011;3597;42.650;23.386;2024-02-21T03:49:25;9.82;;;7.95;;
7110;SDS011;3597;42.650;23.386;2024-02-21T03:51:51;9.55;;;7.78;;
7110;SDS011;3597;42.650;23.386;2024-02-21T03:54:17;11.32;;;9.45;;
7110;SDS011;3597;42.650;23.386;2024-02-21T03:56:43;10.70;;;8.95;;
7110;SDS011;3597;42.650;23.386;2024-02-21T03:59:09;9.50;;;8.23;;
7110;SDS011;3597;42.650;23.386;2024-02-21T04:01:35;9.93;;;8.38;;
7110;SDS011;3597;42.650;23.386;2024-02-21T04:04:01;11.27;;;9.10;;
7110;SDS011;3597;42.650;23.386;2024-02-21T04:06:27;10.88;;;8.43;;
7110;SDS011;3597;42.650;23.386;2024-02-21T04:08:53;12.98;;;8.88;;
7110;SDS011;3597;42.650;23.386;2024-02-21T04:11:18;11.60;;;10.50;;
7110;SDS011;3597;42.650;23.386;2024-02-21T04:13:47;10.55;;;8.25;;
7110;SDS011;3597;42.650;23.386;2024-02-21T04:16:15;10.30;;;7.90;;
7110;SDS011;3597;42.650;23.386;2024-02-21T04:18:41;10.38;;;8.77;;
7110;SDS011;3597;42.650;23.386;2024-02-21T04:21:07;10.32;;;9.20;;
7110;SDS011;3597;42.650;23.386;2024-02-21T04:23:33;10.18;;;8.05;;
7110;SDS011;3597;42.650;23.386;2024-02-21T04:25:58;12.38;;;7.93;;
7110;SDS011;3597;42.650;23.386;2024-02-21T04:28:24;15.07;;;8.05;;
7110;SDS011;3597;42.650;23.386;2024-02-21T04:30:50;9.80;;;7.68;;
7110;SDS011;3597;42.650;23.386;2024-02-21T04:33:15;12.05;;;7.97;;
7110;SDS011;3597;42.650;23.386;2024-02-21T04:35:41;7.82;;;7.03;;
7110;SDS011;3597;42.650;23.386;2024-02-21T04:38:06;12.07;;;7.75;;
7110;SDS011;3597;42.650;23.386;2024-02-21T04:40:32;10.38;;;8.02;;
7110;SDS011;3597;42.650;23.386;2024-02-21T04:42:57;9.13;;;7.53;;
7110;SDS011;3597;42.650;23.386;2024-02-21T04:45:23;11.20;;;7.70;;
7110;SDS011;3597;42.650;23.386;2024-02-21T04:47:49;10.38;;;7.65;;
7110;SDS011;3597;42.650;23.386;2024-02-21T04:50:14;10.85;;;9.35;;
7110;SDS011;3597;42.650;23.386;2024-02-21T04:52:40;11.85;;;9.30;;
7110;SDS011;3597;42.650;23.386;2024-02-21T04:55:06;10.18;;;9.15;;
7110;SDS011;3597;42.650;23.386;2024-02-21T04:57:32;9.73;;;8.43;;
7110;SDS011;3597;42.650;23.386;2024-02-21T04:59:58;10.73;;;8.07;;
7110;SDS011;3597;42.650;23.386;2024-02-21T05:02:23;10.07;;;8.23;;
7110;SDS011;3597;42.650;23.386;2024-02-21T05:04:50;10.40;;;7.72;;
7110;SDS011;3597;42.650;23.386;2024-02-21T05:07:16;9.10;;;8.18;;
7110;SDS011;3597;42.650;23.386;2024-02-21T05:09:42;11.85;;;8.13;;
7110;SDS011;3597;42.650;23.386;2024-02-21T05:12:08;9.65;;;7.70;;
7110;SDS011;3597;42.650;23.386;2024-02-21T05:14:34;10.20;;;8.13;;
7110;SDS011;3597;42.650;23.386;2024-02-21T05:16:59;9.85;;;7.88;;
7110;SDS011;3597;42.650;23.386;2024-02-21T05:19:25;9.70;;;8.50;;
7110;SDS011;3597;42.650;23.386;2024-02-21T05:21:51;11.30;;;8.27;;
7110;SDS011;3597;42.650;23.386;2024-02-21T05:24:16;12.38;;;8.00;;
7110;SDS011;3597;42.650;23.386;2024-02-21T05:26:42;11.52;;;9.75;;
7110;SDS011;3597;42.650;23.386;2024-02-21T05:29:07;9.15;;;7.85;;
7110;SDS011;3597;42.650;23.386;2024-02-21T05:34:17;12.32;;;8.43;;
7110;SDS011;3597;42.650;23.386;2024-02-21T05:36:43;10.23;;;8.45;;
7110;SDS011;3597;42.650;23.386;2024-02-21T05:39:09;9.05;;;7.75;;
7110;SDS011;3597;42.650;23.386;2024-02-21T05:41:35;9.48;;;7.45;;
7110;SDS011;3597;42.650;23.386;2024-02-21T05:44:01;10.10;;;9.07;;
7110;SDS011;3597;42.650;23.386;2024-02-21T05:46:26;11.60;;;8.85;;
7110;SDS011;3597;42.650;23.386;2024-02-21T05:48:52;9.45;;;7.47;;
7110;SDS011;3597;42.650;23.386;2024-02-21T05:51:18;9.65;;;7.28;;
7110;SDS011;3597;42.650;23.386;2024-02-21T05:53:43;9.00;;;7.63;;
7110;SDS011;3597;42.650;23.386;2024-02-21T05:56:12;8.45;;;7.65;;
7110;SDS011;3597;42.650;23.386;2024-02-21T05:58:39;10.25;;;7.90;;
7110;SDS011;3597;42.650;23.386;2024-02-21T06:01:05;11.25;;;8.75;;
7110;SDS011;3597;42.650;23.386;2024-02-21T06:03:32;9.15;;;8.23;;
7110;SDS011;3597;42.650;23.386;2024-02-21T06:06:02;9.23;;;7.47;;
7110;SDS011;3597;42.650;23.386;2024-02-21T06:08:28;9.80;;;8.02;;
7110;SDS011;3597;42.650;23.386;2024-02-21T06:10:53;9.40;;;8.35;;
7110;SDS011;3597;42.650;23.386;2024-02-21T06:13:26;8.35;;;7.40;;
7110;SDS011;3597;42.650;23.386;2024-02-21T06:15:52;8.65;;;7.72;;
7110;SDS011;3597;42.650;23.386;2024-02-21T06:18:18;8.88;;;7.95;;
7110;SDS011;3597;42.650;23.386;2024-02-21T06:20:44;10.98;;;7.80;;
7110;SDS011;3597;42.650;23.386;2024-02-21T06:23:11;10.38;;;8.23;;
7110;SDS011;3597;42.650;23.386;2024-02-21T06:25:37;11.82;;;9.25;;
7110;SDS011;3597;42.650;23.386;2024-02-21T06:28:03;14.38;;;8.68;;
7110;SDS011;3597;42.650;23.386;2024-02-21T06:30:30;9.38;;;7.68;;
7110;SDS011;3597;42.650;23.386;2024-02-21T06:32:55;9.50;;;7.50;;
7110;SDS011;3597;42.650;23.386;2024-02-21T06:35:21;8.63;;;7.25;;
7110;SDS011;3597;42.650;23.386;2024-02-21T06:37:49;9.40;;;7.38;;
7110;SDS011;3597;42.650;23.386;2024-02-21T06:40:20;8.88;;;7.68;;
7110;SDS011;3597;42.650;23.386;2024-02-21T06:42:47;7.43;;;6.68;;
7110;SDS011;3597;42.650;23.386;2024-02-21T06:45:12;10.00;;;8.27;;
7110;SDS011;3597;42.650;23.386;2024-02-21T06:47:38;10.63;;;7.68;;
7110;SDS011;3597;42.650;23.386;2024-02-21T06:50:03;9.95;;;7.53;;
7110;SDS011;3597;42.650;23.386;2024-02-21T06:52:29;11.25;;;8.43;;
7110;SDS011;3597;42.650;23.386;2024-02-21T06:54:56;11.85;;;8.93;;
7110;SDS011;3597;42.650;23.386;2024-02-21T06:57:22;9.35;;;8.40;;
7110;SDS011;3597;42.650;23.386;2024-02-21T06:59:48;11.07;;;8.63;;
7110;SDS011;3597;42.650;23.386;2024-02-21T07:02:14;9.93;;;8.30;;
7110;SDS011;3597;42.650;23.386;2024-02-21T07:04:39;9.13;;;8.05;;
7110;SDS011;3597;42.650;23.386;2024-02-21T07:07:05;9.10;;;7.68;;
7110;SDS011;3597;42.650;23.386;2024-02-21T07:09:30;18.88;;;12.32;;
7110;SDS011;3597;42.650;23.386;2024-02-21T07:12:00;10.93;;;9.05;;
7110;SDS011;3597;42.650;23.386;2024-02-21T07:14:27;13.05;;;10.43;;
7110;SDS011;3597;42.650;23.386;2024-02-21T07:16:56;10.90;;;9.25;;
7110;SDS011;3597;42.650;23.386;2024-02-21T07:19:22;12.68;;;9.73;;
7110;SDS011;3597;42.650;23.386;2024-02-21T07:21:47;10.85;;;8.85;;
7110;SDS011;3597;42.650;23.386;2024-02-21T07:24:13;54.83;;;34.83;;
7110;SDS011;3597;42.650;23.386;2024-02-21T07:26:42;15.88;;;10.25;;
7110;SDS011;3597;42.650;23.386;2024-02-21T07:29:11;18.35;;;15.15;;
7110;SDS011;3597;42.650;23.386;2024-02-21T07:31:40;16.55;;;14.60;;
7110;SDS011;3597;42.650;23.386;2024-02-21T07:34:06;13.90;;;10.63;;
7110;SDS011;3597;42.650;23.386;2024-02-21T07:36:32;10.80;;;9.70;;
7110;SDS011;3597;42.650;23.386;2024-02-21T07:38:57;13.75;;;9.40;;
7110;SDS011;3597;42.650;23.386;2024-02-21T07:41:23;11.02;;;9.07;;
7110;SDS011;3597;42.650;23.386;2024-02-21T07:43:48;10.73;;;9.30;;
7110;SDS011;3597;42.650;23.386;2024-02-21T07:46:14;14.20;;;9.85;;
7110;SDS011;3597;42.650;23.386;2024-02-21T07:48:40;13.65;;;9.65;;
7110;SDS011;3597;42.650;23.386;2024-02-21T07:51:05;9.50;;;8.50;;
7110;SDS011;3597;42.650;23.386;2024-02-21T07:53:31;11.02;;;8.95;;
7110;SDS011;3597;42.650;23.386;2024-02-21T07:55:56;9.95;;;8.55;;
7110;SDS011;3597;42.650;23.386;2024-02-21T07:58:22;10.52;;;8.48;;
7110;SDS011;3597;42.650;23.386;2024-02-21T08:00:48;12.65;;;10.32;;
7110;SDS011;3597;42.650;23.386;2024-02-21T08:03:13;15.60;;;10.18;;
7110;SDS011;3597;42.650;23.386;2024-02-21T08:05:40;13.75;;;10.27;;
7110;SDS011;3597;42.650;23.386;2024-02-21T08:08:06;12.98;;;10.68;;
7110;SDS011;3597;42.650;23.386;2024-02-21T08:10:33;11.82;;;9.18;;
7110;SDS011;3597;42.650;23.386;2024-02-21T08:12:59;10.52;;;9.43;;
7110;SDS011;3597;42.650;23.386;2024-02-21T08:15:24;15.77;;;11.20;;
7110;SDS011;3597;42.650;23.386;2024-02-21T08:17:53;11.77;;;10.32;;
7110;SDS011;3597;42.650;23.386;2024-02-21T08:20:23;9.80;;;7.43;;
7110;SDS011;3597;42.650;23.386;2024-02-21T08:22:49;11.68;;;10.25;;
7110;SDS011;3597;42.650;23.386;2024-02-21T08:25:15;10.20;;;8.68;;
7110;SDS011;3597;42.650;23.386;2024-02-21T08:27:40;12.68;;;9.00;;
7110;SDS011;3597;42.650;23.386;2024-02-21T08:30:06;10.57;;;9.00;;
7110;SDS011;3597;42.650;23.386;2024-02-21T08:32:33;14.30;;;10.77;;
7110;SDS011;3597;42.650;23.386;2024-02-21T08:35:01;11.43;;;9.65;;
7110;SDS011;3597;42.650;23.386;2024-02-21T08:37:29;12.18;;;9.27;;
7110;SDS011;3597;42.650;23.386;2024-02-21T08:39:56;11.50;;;8.25;;
7110;SDS011;3597;42.650;23.386;2024-02-21T08:42:22;10.02;;;8.77;;
7110;SDS011;3597;42.650;23.386;2024-02-21T08:44:47;11.70;;;9.32;;
7110;SDS011;3597;42.650;23.386;2024-02-21T08:47:13;10.48;;;8.48;;
7110;SDS011;3597;42.650;23.386;2024-02-21T08:49:39;12.07;;;10.02;;
7110;SDS011;3597;42.650;23.386;2024-02-21T08:52:04;9.85;;;8.07;;
7110;SDS011;3597;42.650;23.386;2024-02-21T08:54:30;9.10;;;7.75;;
7110;SDS011;3597;42.650;23.386;2024-02-21T08:56:59;10.30;;;7.95;;
7110;SDS011;3597;42.650;23.386;2024-02-21T08:59:24;11.07;;;7.88;;
7110;SDS011;3597;42.650;23.386;2024-02-21T09:01:51;8.75;;;7.85;;
7110;SDS011;3597;42.650;23.386;2024-02-21T09:04:18;10.52;;;9.43;;
7110;SDS011;3597;42.650;23.386;2024-02-21T09:06:44;13.90;;;9.07;;
7110;SDS011;3597;42.650;23.386;2024-02-21T09:09:11;9.98;;;7.90;;
7110;SDS011;3597;42.650;23.386;2024-02-21T09:11:37;7.53;;;6.72;;
7110;SDS011;3597;42.650;23.386;2024-02-21T09:14:03;8.77;;;6.30;;
7110;SDS011;3597;42.650;23.386;2024-02-21T09:16:30;8.02;;;6.53;;
7110;SDS011;3597;42.650;23.386;2024-02-21T09:18:58;9.13;;;7.43;;
7110;SDS011;3597;42.650;23.386;2024-02-21T09:21:24;8.45;;;7.57;;
7110;SDS011;3597;42.650;23.386;2024-02-21T09:23:50;7.13;;;6.43;;
7110;SDS011;3597;42.650;23.386;2024-02-21T09:26:15;6.45;;;5.72;;
7110;SDS011;3597;42.650;23.386;2024-02-21T09:28:42;7.22;;;6.18;;
7110;SDS011;3597;42.650;23.386;2024-02-21T09:31:09;8.10;;;6.50;;
7110;SDS011;3597;42.650;23.386;2024-02-21T09:33:34;7.10;;;5.72;;
7110;SDS011;3597;42.650;23.386;2024-02-21T09:36:00;8.95;;;6.68;;
7110;SDS011;3597;42.650;23.386;2024-02-21T09:38:26;7.03;;;5.97;;
7110;SDS011;3597;42.650;23.386;2024-02-21T09:41:06;8.40;;;7.15;;
7110;SDS011;3597;42.650;23.386;2024-02-21T09:43:38;8.90;;;7.25;;
7110;SDS011;3597;42.650;23.386;2024-02-21T09:46:06;8.82;;;7.47;;
7110;SDS011;3597;42.650;23.386;2024-02-21T09:51:12;6.82;;;6.00;;
7110;SDS011;3597;42.650;23.386;2024-02-21T09:53:40;7.20;;;6.20;;
7110;SDS011;3597;42.650;23.386;2024-02-21T09:56:08;7.10;;;5.65;;
7110;SDS011;3597;42.650;23.386;2024-02-21T09:58:34;7.57;;;5.68;;
7110;SDS011;3597;42.650;23.386;2024-02-21T10:01:00;5.88;;;5.28;;
7110;SDS011;3597;42.650;23.386;2024-02-21T10:03:26;6.55;;;5.85;;
7110;SDS011;3597;42.650;23.386;2024-02-21T10:05:51;7.00;;;6.20;;
7110;SDS011;3597;42.650;23.386;2024-02-21T10:08:17;11.73;;;8.95;;
7110;SDS011;3597;42.650;23.386;2024-02-21T10:10:45;6.65;;;5.78;;
7110;SDS011;3597;42.650;23.386;2024-02-21T10:13:23;7.90;;;6.03;;
7110;SDS011;3597;42.650;23.386;2024-02-21T10:16:00;8.05;;;6.88;;
7110;SDS011;3597;42.650;23.386;2024-02-21T10:18:32;6.82;;;5.93;;
7110;SDS011;3597;42.650;23.386;2024-02-21T10:20:59;6.22;;;4.70;;
7110;SDS011;3597;42.650;23.386;2024-02-21T10:23:47;4.85;;;4.40;;
7110;SDS011;3597;42.650;23.386;2024-02-21T10:26:14;5.07;;;4.60;;
7110;SDS011;3597;42.650;23.386;2024-02-21T10:28:41;8.25;;;6.78;;
7110;SDS011;3597;42.650;23.386;2024-02-21T10:31:10;6.05;;;4.57;;
7110;SDS011;3597;42.650;23.386;2024-02-21T10:33:36;5.82;;;5.22;;
7110;SDS011;3597;42.650;23.386;2024-02-21T10:36:09;6.97;;;6.10;;
7110;SDS011;3597;42.650;23.386;2024-02-21T10:38:36;12.70;;;10.50;;
7110;SDS011;3597;42.650;23.386;2024-02-21T10:41:04;5.70;;;5.07;;
7110;SDS011;3597;42.650;23.386;2024-02-21T10:43:30;6.07;;;5.07;;
7110;SDS011;3597;42.650;23.386;2024-02-21T10:46:03;8.15;;;5.97;;
7110;SDS011;3597;42.650;23.386;2024-02-21T10:48:32;7.25;;;6.55;;
7110;SDS011;3597;42.650;23.386;2024-02-21T10:59:01;5.45;;;4.95;;
7110;SDS011;3597;42.650;23.386;2024-02-21T11:01:30;4.63;;;4.22;;
7110;SDS011;3597;42.650;23.386;2024-02-21T11:04:01;4.25;;;3.40;;
7110;SDS011;3597;42.650;23.386;2024-02-21T11:06:28;5.05;;;4.20;;
7110;SDS011;3597;42.650;23.386;2024-02-21T11:09:04;4.95;;;4.55;;
7110;SDS011;3597;42.650;23.386;2024-02-21T11:11:49;5.65;;;4.75;;
7110;SDS011;3597;42.650;23.386;2024-02-21T11:14:18;4.45;;;4.05;;
7110;SDS011;3597;42.650;23.386;2024-02-21T11:16:45;4.00;;;3.20;;
7110;SDS011;3597;42.650;23.386;2024-02-21T11:19:20;4.07;;;3.67;;
7110;SDS011;3597;42.650;23.386;2024-02-21T11:21:49;3.30;;;3.00;;
7110;SDS011;3597;42.650;23.386;2024-02-21T11:24:34;3.30;;;3.00;;
7110;SDS011;3597;42.650;23.386;2024-02-21T11:27:42;4.40;;;4.00;;
7110;SDS011;3597;42.650;23.386;2024-02-21T11:29:55;3.70;;;3.40;;
7110;SDS011;3597;42.650;23.386;2024-02-21T11:32:22;8.65;;;4.35;;
7110;SDS011;3597;42.650;23.386;2024-02-21T11:34:57;7.85;;;6.38;;
7110;SDS011;3597;42.650;23.386;2024-02-21T11:37:32;4.60;;;4.20;;
7110;SDS011;3597;42.650;23.386;2024-02-21T11:39:59;6.25;;;4.75;;
7110;SDS011;3597;42.650;23.386;2024-02-21T11:42:29;4.25;;;3.75;;
7110;SDS011;3597;42.650;23.386;2024-02-21T11:44:59;7.15;;;5.70;;
7110;SDS011;3597;42.650;23.386;2024-02-21T11:47:25;4.22;;;3.83;;
7110;SDS011;3597;42.650;23.386;2024-02-21T11:49:53;4.38;;;3.97;;
7110;SDS011;3597;42.650;23.386;2024-02-21T11:52:21;7.25;;;6.55;;
7110;SDS011;3597;42.650;23.386;2024-02-21T11:54:50;5.93;;;5.32;;
7110;SDS011;3597;42.650;23.386;2024-02-21T11:57:17;4.93;;;4.45;;
7110;SDS011;3597;42.650;23.386;2024-02-21T11:59:44;6.97;;;6.35;;
7110;SDS011;3597;42.650;23.386;2024-02-21T12:02:11;5.32;;;4.85;;
7110;SDS011;3597;42.650;23.386;2024-02-21T12:04:37;7.15;;;6.47;;
7110;SDS011;3597;42.650;23.386;2024-02-21T12:07:03;5.60;;;4.63;;
7110;SDS011;3597;42.650;23.386;2024-02-21T12:09:29;4.72;;;4.32;;
7110;SDS011;3597;42.650;23.386;2024-02-21T12:11:59;5.03;;;4.30;;
7110;SDS011;3597;42.650;23.386;2024-02-21T12:14:29;5.22;;;4.47;;
7110;SDS011;3597;42.650;23.386;2024-02-21T12:16:55;5.45;;;4.95;;
7110;SDS011;3597;42.650;23.386;2024-02-21T12:19:21;8.27;;;7.53;;
7110;SDS011;3597;42.650;23.386;2024-02-21T12:21:48;3.70;;;3.40;;
7110;SDS011;3597;42.650;23.386;2024-02-21T12:24:21;3.88;;;3.33;;
7110;SDS011;3597;42.650;23.386;2024-02-21T12:26:51;7.72;;;5.32;;
7110;SDS011;3597;42.650;23.386;2024-02-21T12:29:18;6.85;;;6.15;;
7110;SDS011;3597;42.650;23.386;2024-02-21T12:31:44;18.42;;;13.68;;
7110;SDS011;3597;42.650;23.386;2024-02-21T12:34:10;36.58;;;24.83;;
7110;SDS011;3597;42.650;23.386;2024-02-21T12:36:36;28.17;;;20.02;;
7110;SDS011;3597;42.650;23.386;2024-02-21T12:39:08;17.77;;;13.45;;
7110;SDS011;3597;42.650;23.386;2024-02-21T12:41:33;33.90;;;20.23;;
7110;SDS011;3597;42.650;23.386;2024-02-21T12:44:01;16.73;;;10.68;;
7110;SDS011;3597;42.650;23.386;2024-02-21T12:46:28;11.00;;;9.77;;
7110;SDS011;3597;42.650;23.386;2024-02-21T12:48:54;8.77;;;7.88;;
7110;SDS011;3597;42.650;23.386;2024-02-21T12:51:19;11.15;;;10.02;;
7110;SDS011;3597;42.650;23.386;2024-02-21T12:53:47;11.80;;;8.45;;
7110;SDS011;3597;42.650;23.386;2024-02-21T12:56:15;5.75;;;5.07;;
7110;SDS011;3597;42.650;23.386;2024-02-21T12:58:41;4.40;;;4.00;;
7110;SDS011;3597;42.650;23.386;2024-02-21T13:01:06;5.38;;;4.65;;
7110;SDS011;3597;42.650;23.386;2024-02-21T13:03:32;4.60;;;3.10;;
7110;SDS011;3597;42.650;23.386;2024-02-21T13:05:57;6.93;;;4.72;;
7110;SDS011;3597;42.650;23.386;2024-02-21T13:08:24;6.20;;;3.67;;
7110;SDS011;3597;42.650;23.386;2024-02-21T13:10:50;7.35;;;5.80;;
7110;SDS011;3597;42.650;23.386;2024-02-21T13:13:16;3.15;;;2.85;;
7110;SDS011;3597;42.650;23.386;2024-02-21T13:15:41;3.47;;;2.78;;
7110;SDS011;3597;42.650;23.386;2024-02-21T13:18:08;3.53;;;2.78;;
7110;SDS011;3597;42.650;23.386;2024-02-21T13:20:34;3.80;;;2.97;;
7110;SDS011;3597;42.650;23.386;2024-02-21T13:23:01;3.10;;;2.85;;
7110;SDS011;3597;42.650;23.386;2024-02-21T13:25:26;2.80;;;2.40;;
7110;SDS011;3597;42.650;23.386;2024-02-21T13:27:52;4.95;;;3.33;;
7110;SDS011;3597;42.650;23.386;2024-02-21T13:30:17;3.33;;;3.00;;
7110;SDS011;3597;42.650;23.386;2024-02-21T13:32:43;3.65;;;2.75;;
7110;SDS011;3597;42.650;23.386;2024-02-21T13:35:11;5.40;;;4.03;;
7110;SDS011;3597;42.650;23.386;2024-02-21T13:37:37;4.18;;;3.78;;
7110;SDS011;3597;42.650;23.386;2024-02-21T13:40:04;5.68;;;3.00;;
7110;SDS011;3597;42.650;23.386;2024-02-21T13:42:30;3.30;;;3.00;;
7110;SDS011;3597;42.650;23.386;2024-02-21T13:44:56;25.65;;;17.20;;
7110;SDS011;3597;42.650;23.386;2024-02-21T13:47:22;41.47;;;28.23;;
7110;SDS011;3597;42.650;23.386;2024-02-21T13:49:47;41.95;;;29.63;;
7110;SDS011;3597;42.650;23.386;2024-02-21T13:52:13;13.60;;;11.13;;
7110;SDS011;3597;42.650;23.386;2024-02-21T13:54:39;9.63;;;8.43;;
7110;SDS011;3597;42.650;23.386;2024-02-21T13:57:05;6.55;;;5.90;;
7110;SDS011;3597;42.650;23.386;2024-02-21T13:59:31;11.50;;;5.60;;
7110;SDS011;3597;42.650;23.386;2024-02-21T14:01:58;5.40;;;4.53;;
7110;SDS011;3597;42.650;23.386;2024-02-21T14:04:24;4.53;;;3.80;;
7110;SDS011;3597;42.650;23.386;2024-02-21T14:06:49;5.18;;;4.78;;
7110;SDS011;3597;42.650;23.386;2024-02-21T14:09:15;5.95;;;4.75;;
7110;SDS011;3597;42.650;23.386;2024-02-21T14:11:40;3.30;;;3.00;;
7110;SDS011;3597;42.650;23.386;2024-02-21T14:14:07;2.70;;;2.08;;
7110;SDS011;3597;42.650;23.386;2024-02-21T14:16:33;2.28;;;1.80;;
7110;SDS011;3597;42.650;23.386;2024-02-21T14:18:58;2.47;;;2.20;;
7110;SDS011;3597;42.650;23.386;2024-02-21T14:21:24;2.65;;;2.38;;
7110;SDS011;3597;42.650;23.386;2024-02-21T14:23:50;2.88;;;2.60;;
7110;SDS011;3597;42.650;23.386;2024-02-21T14:26:18;4.38;;;3.60;;
7110;SDS011;3597;42.650;23.386;2024-02-21T14:28:43;5.75;;;4.68;;
7110;SDS011;3597;42.650;23.386;2024-02-21T14:31:09;10.00;;;5.18;;
7110;SDS011;3597;42.650;23.386;2024-02-21T14:33:35;6.10;;;4.57;;
7110;SDS011;3597;42.650;23.386;2024-02-21T14:36:01;4.03;;;3.63;;
7110;SDS011;3597;42.650;23.386;2024-02-21T14:38:28;4.07;;;3.40;;
7110;SDS011;3597;42.650;23.386;2024-02-21T14:40:53;3.85;;;3.22;;
7110;SDS011;3597;42.650;23.386;2024-02-21T14:43:19;10.13;;;7.22;;
7110;SDS011;3597;42.650;23.386;2024-02-21T14:45:46;10.02;;;6.90;;
7110;SDS011;3597;42.650;23.386;2024-02-21T14:48:13;9.70;;;6.35;;
7110;SDS011;3597;42.650;23.386;2024-02-21T14:50:39;7.00;;;5.35;;
7110;SDS011;3597;42.650;23.386;2024-02-21T14:53:05;6.57;;;4.75;;
7110;SDS011;3597;42.650;23.386;2024-02-21T14:55:33;4.78;;;3.72;;
7110;SDS011;3597;42.650;23.386;2024-02-21T14:57:59;6.28;;;3.80;;
7110;SDS011;3597;42.650;23.386;2024-02-21T15:00:25;4.50;;;3.92;;
7110;SDS011;3597;42.650;23.386;2024-02-21T15:02:55;9.35;;;7.45;;